createdAt,value
2022-08-20T00:02:47.113Z,99686.56
2022-08-20T00:05:56.820Z,99688.03
2022-08-20T00:08:59.066Z,99692.28
2022-08-20T00:12:01.687Z,99697.97
2022-08-20T00:15:05.972Z,99709.56
2022-08-20T00:18:09.475Z,99711.25
2022-08-20T00:21:18.724Z,99721.00
2022-08-20T00:24:21.847Z,99717.75
2022-08-20T00:27:24.047Z,99726.41
2022-08-20T00:30:27.429Z,99732.13
2022-08-20T00:33:29.834Z,99730.06
2022-08-20T00:36:33.002Z,99722.72
2022-08-20T00:39:35.930Z,99729.53
2022-08-20T00:42:48.785Z,99723.09
2022-08-20T00:45:55.458Z,99723.91
2022-08-20T00:48:58.684Z,99732.22
2022-08-20T00:52:07.887Z,99724.50
2022-08-20T00:55:12.250Z,99715.66
2022-08-20T00:58:15.086Z,99722.00
2022-08-20T01:01:17.968Z,99709.59
2022-08-20T01:04:20.525Z,99692.41
2022-08-20T01:07:32.578Z,99694.41
2022-08-20T01:10:40.754Z,99680.03
2022-08-20T01:13:45.649Z,99655.88
2022-08-20T01:16:50.863Z,99647.66
2022-08-20T01:19:58.950Z,99631.28
2022-08-20T01:23:34.814Z,99637.81
2022-08-20T01:26:41.590Z,99641.59
2022-08-20T01:29:44.395Z,99658.63
2022-08-20T01:32:46.891Z,99656.69
2022-08-20T01:35:50.285Z,99650.91
2022-08-20T01:38:54.638Z,99647.88
2022-08-20T01:42:31.151Z,99640.41
2022-08-20T01:45:33.756Z,99645.28
2022-08-20T01:48:38.497Z,99628.53
2022-08-20T01:51:41.730Z,99637.66
2022-08-20T01:54:43.891Z,99642.25
2022-08-20T01:57:48.396Z,99646.38
2022-08-20T02:00:50.588Z,99642.09
2022-08-20T02:03:54.195Z,99637.56
2022-08-20T02:06:59.289Z,99642.56
2022-08-20T02:10:02.615Z,99636.63
2022-08-20T02:13:05.786Z,99651.81
2022-08-20T02:16:08.222Z,99647.06
2022-08-20T02:19:19.279Z,99647.53
2022-08-20T02:22:31.400Z,99648.81
2022-08-20T02:25:37.398Z,99652.97
2022-08-20T02:28:39.611Z,99653.69
2022-08-20T02:32:24.375Z,99648.91
2022-08-20T02:35:09.998Z,99655.41
2022-08-20T02:38:12.650Z,99652.47
2022-08-20T02:41:15.360Z,99655.41
2022-08-20T02:44:20.490Z,99672.06
2022-08-20T02:47:22.657Z,99671.75
2022-08-20T02:50:26.929Z,99668.22
2022-08-20T02:53:33.207Z,99677.03
2022-08-20T02:56:35.679Z,99677.44
2022-08-20T02:59:38.798Z,99687.47
2022-08-20T03:02:41.478Z,99694.28
2022-08-20T03:05:44.375Z,99701.72
2022-08-20T03:08:46.889Z,99720.22
2022-08-20T03:11:49.297Z,99739.69
2022-08-20T03:14:51.754Z,99737.84
2022-08-20T03:17:53.948Z,99727.81
2022-08-20T03:20:56.562Z,99733.19
2022-08-20T03:23:59.696Z,99771.06
2022-08-20T03:27:02.216Z,99752.84
2022-08-20T03:30:07.873Z,99738.50
2022-08-20T03:33:10.562Z,99755.88
2022-08-20T03:36:12.806Z,99757.63
2022-08-20T03:39:21.678Z,99761.06
2022-08-20T03:42:23.907Z,99761.06
2022-08-20T03:45:27.701Z,99755.50
2022-08-20T03:48:30.145Z,99763.69
2022-08-20T03:51:57.861Z,99773.56
2022-08-20T03:54:56.495Z,99775.69
2022-08-20T03:58:02.939Z,99759.59
2022-08-20T04:01:07.060Z,99746.97
2022-08-20T04:04:12.500Z,99740.81
2022-08-20T04:07:26.152Z,99750.41
2022-08-20T04:10:30.323Z,99757.91
2022-08-20T04:13:32.908Z,99761.66
2022-08-20T04:16:35.581Z,99749.25
2022-08-20T04:19:38.972Z,99734.75
2022-08-20T04:22:41.567Z,99714.44
2022-08-20T04:25:45.606Z,99687.56
2022-08-20T04:28:48.147Z,99690.25
2022-08-20T04:31:50.349Z,99709.56
2022-08-20T04:34:53.636Z,99704.22
2022-08-20T04:38:07.887Z,99710.13
2022-08-20T04:41:10.386Z,99721.44
2022-08-20T04:44:25.620Z,99715.91
2022-08-20T04:47:34.826Z,99715.78
2022-08-20T04:50:39.767Z,99707.91
2022-08-20T04:53:43.098Z,99721.97
2022-08-20T04:56:45.535Z,99719.87
2022-08-20T04:59:48.031Z,99727.13
2022-08-20T05:02:50.169Z,99731.19
2022-08-20T05:05:53.558Z,99745.91
2022-08-20T05:08:58.150Z,99747.84
2022-08-20T05:12:00.665Z,99743.16
2022-08-20T05:15:04.364Z,99757.50
2022-08-20T05:18:08.299Z,99759.06
2022-08-20T05:21:10.542Z,99745.94
2022-08-20T05:24:13.132Z,99736.25
2022-08-20T05:27:24.616Z,99727.75
2022-08-20T05:30:33.538Z,99732.38
2022-08-20T05:33:38.661Z,99727.59
2022-08-20T05:36:49.409Z,99722.34
2022-08-20T05:39:52.053Z,99717.38
2022-08-20T05:42:54.729Z,99731.72
2022-08-20T05:45:59.200Z,99734.72
2022-08-20T05:49:02.145Z,99745.03
2022-08-20T05:52:05.450Z,99737.59
2022-08-20T05:55:13.189Z,99737.78
2022-08-20T05:58:25.527Z,99743.72
2022-08-20T06:01:28.301Z,99733.72
2022-08-20T06:04:32.111Z,99727.28
2022-08-20T06:07:34.454Z,99723.38
2022-08-20T06:10:38.253Z,99713.84
2022-08-20T06:13:42.425Z,99721.28
2022-08-20T06:16:57.233Z,99719.44
2022-08-20T06:20:04.205Z,99714.91
2022-08-20T06:23:08.674Z,99731.28
2022-08-20T06:26:11.094Z,99740.56
2022-08-20T06:29:13.531Z,99739.50
2022-08-20T06:32:16.477Z,99756.09
2022-08-20T06:35:20.208Z,99746.19
2022-08-20T06:38:23.095Z,99769.84
2022-08-20T06:41:35.939Z,99766.97
2022-08-20T06:44:38.800Z,99770.47
2022-08-20T06:47:44.182Z,99770.88
2022-08-20T06:50:48.068Z,99783.47
2022-08-20T06:53:50.873Z,99792.16
2022-08-20T06:56:54.610Z,99786.97
2022-08-20T06:59:58.458Z,99787.37
2022-08-20T07:03:02.136Z,99790.97
2022-08-20T07:06:05.413Z,99816.81
2022-08-20T07:09:08.155Z,99831.63
2022-08-20T07:12:10.663Z,99823.66
2022-08-20T07:15:14.444Z,99824.75
2022-08-20T07:18:17.907Z,99821.25
2022-08-20T07:21:30.835Z,99822.47
2022-08-20T07:24:34.971Z,99816.53
2022-08-20T07:27:41.768Z,99819.53
2022-08-20T07:31:12.138Z,99817.25
2022-08-20T07:34:15.602Z,99818.63
2022-08-20T07:37:18.036Z,99833.16
2022-08-20T07:40:26.234Z,99845.62
2022-08-20T07:43:30.715Z,99842.41
2022-08-20T07:46:33.021Z,99862.06
2022-08-20T07:49:39.729Z,99883.50
2022-08-20T07:52:41.894Z,99920.44
2022-08-20T07:55:57.144Z,99959.56
2022-08-20T07:59:02.250Z,99970.03
2022-08-20T08:02:05.734Z,99978.72
2022-08-20T08:05:09.185Z,99962.22
2022-08-20T08:08:17.600Z,99960.19
2022-08-20T08:11:21.227Z,99953.09
2022-08-20T08:14:28.888Z,99945.19
2022-08-20T08:17:31.599Z,99964.88
2022-08-20T08:20:46.761Z,99972.00
2022-08-20T08:23:50.171Z,99973.97
2022-08-20T08:26:52.528Z,99998.12
2022-08-20T08:29:55.060Z,99993.59
2022-08-20T08:33:16.954Z,99981.44
2022-08-20T08:36:19.537Z,99953.63
2022-08-20T08:39:22.197Z,99938.69
2022-08-20T08:42:34.377Z,99942.47
2022-08-20T08:45:45.506Z,99928.72
2022-08-20T08:48:53.269Z,99928.56
2022-08-20T08:52:02.337Z,99920.56
2022-08-20T08:55:10.468Z,99916.53
2022-08-20T08:58:16.879Z,99913.19
2022-08-20T09:01:55.615Z,99897.06
2022-08-20T09:04:44.920Z,99890.69
2022-08-20T09:07:51.139Z,99913.16
2022-08-20T09:11:00.623Z,99916.16
2022-08-20T09:14:03.390Z,99933.94
2022-08-20T09:17:06.301Z,99970.19
2022-08-20T09:20:10.557Z,99985.84
2022-08-20T09:23:12.756Z,99986.88
2022-08-20T09:26:15.260Z,99996.56
2022-08-20T09:29:18.075Z,99990.25
2022-08-20T09:32:22.801Z,99976.75
2022-08-20T09:35:25.175Z,99982.44
2022-08-20T09:38:27.789Z,99970.63
2022-08-20T09:41:30.820Z,99959.28
2022-08-20T09:44:33.448Z,99947.44
2022-08-20T09:47:35.723Z,99947.09
2022-08-20T09:50:48.009Z,99931.28
2022-08-20T09:53:50.604Z,99914.12
2022-08-20T09:56:53.066Z,99891.94
2022-08-20T10:00:00.079Z,99876.75
2022-08-20T10:03:03.422Z,99850.25
2022-08-20T10:06:06.094Z,99833.78
2022-08-20T10:09:08.408Z,99826.81
2022-08-20T10:12:10.908Z,99815.00
2022-08-20T10:15:13.793Z,99772.78
2022-08-20T10:18:16.374Z,99741.69
2022-08-20T10:21:18.552Z,99698.38
2022-08-20T10:24:21.896Z,99694.88
2022-08-20T10:27:24.073Z,99730.81
2022-08-20T10:30:26.636Z,99755.66
2022-08-20T10:33:28.813Z,99786.19
2022-08-20T10:36:31.471Z,99809.44
2022-08-20T10:39:33.938Z,99840.03
2022-08-20T10:42:41.811Z,99862.28
2022-08-20T10:45:44.881Z,99867.03
2022-08-20T10:48:47.398Z,99879.66
2022-08-20T10:51:49.646Z,99895.41
2022-08-20T10:54:52.407Z,99901.22
2022-08-20T10:57:54.627Z,99893.22
2022-08-20T11:00:57.051Z,99888.84
2022-08-20T11:03:59.228Z,99896.88
2022-08-20T11:07:50.797Z,99908.06
2022-08-20T11:10:48.628Z,99901.50
2022-08-20T11:13:51.155Z,99898.66
2022-08-20T11:16:53.444Z,99906.81
2022-08-20T11:19:57.298Z,99927.84
2022-08-20T11:22:59.608Z,99942.66
2022-08-20T11:26:02.329Z,99939.56
2022-08-20T11:29:04.512Z,99933.81
2022-08-20T11:32:06.967Z,99927.84
2022-08-20T11:35:40.410Z,99925.72
2022-08-20T11:38:33.095Z,99914.34
2022-08-20T11:41:35.277Z,99908.97
2022-08-20T11:44:38.003Z,99892.00
2022-08-20T11:47:41.217Z,99909.19
2022-08-20T11:50:44.453Z,99904.44
2022-08-20T11:53:47.750Z,99897.28
2022-08-20T11:56:51.893Z,99895.81
2022-08-20T11:59:56.045Z,99892.09
2022-08-20T12:02:58.605Z,99884.63
2022-08-20T12:06:02.535Z,99883.38
2022-08-20T12:09:06.826Z,99864.53
2022-08-20T12:12:09.981Z,99871.34
2022-08-20T12:15:12.452Z,99872.84
2022-08-20T12:18:14.823Z,99867.91
2022-08-20T12:21:17.048Z,99854.00
2022-08-20T12:24:20.683Z,99845.78
2022-08-20T12:27:31.741Z,99832.56
2022-08-20T12:30:34.819Z,99829.00
2022-08-20T12:33:37.009Z,99826.91
2022-08-20T12:36:39.395Z,99816.56
2022-08-20T12:39:43.688Z,99812.81
2022-08-20T12:42:46.287Z,99812.88
2022-08-20T12:45:48.422Z,99797.63
2022-08-20T12:48:50.848Z,99793.19
2022-08-20T12:51:52.965Z,99792.38
2022-08-20T12:54:56.030Z,99773.22
2022-08-20T12:58:00.901Z,99770.97
2022-08-20T13:01:03.350Z,99764.28
2022-08-20T13:04:05.561Z,99762.84
2022-08-20T13:07:11.639Z,99763.69
2022-08-20T13:10:20.854Z,99766.38
2022-08-20T13:13:23.236Z,99759.16
2022-08-20T13:16:25.751Z,99763.06
2022-08-20T13:19:30.870Z,99763.72
2022-08-20T13:22:33.092Z,99773.91
2022-08-20T13:25:35.523Z,99775.97
2022-08-20T13:28:37.698Z,99765.22
2022-08-20T13:31:41.421Z,99763.44
2022-08-20T13:34:44.563Z,99757.06
2022-08-20T13:37:48.210Z,99760.75
2022-08-20T13:40:50.599Z,99756.66
2022-08-20T13:43:53.072Z,99764.06
2022-08-20T13:46:55.176Z,99768.66
2022-08-20T13:50:08.124Z,99774.09
2022-08-20T13:53:10.244Z,99772.75
2022-08-20T13:56:12.798Z,99781.91
2022-08-20T13:59:15.001Z,99794.44
2022-08-20T14:02:18.386Z,99797.78
2022-08-20T14:05:21.316Z,99799.50
2022-08-20T14:08:24.927Z,99803.63
2022-08-20T14:11:27.315Z,99795.94
2022-08-20T14:14:29.484Z,99768.50
2022-08-20T14:17:34.594Z,99767.66
2022-08-20T14:20:38.827Z,99745.91
2022-08-20T14:23:43.883Z,99753.97
2022-08-20T14:26:46.096Z,99754.81
2022-08-20T14:29:50.080Z,99753.94
2022-08-20T14:32:52.743Z,99761.62
2022-08-20T14:35:55.660Z,99769.28
2022-08-20T14:38:58.196Z,99761.62
2022-08-20T14:42:00.583Z,99761.44
2022-08-20T14:45:06.119Z,99754.28
2022-08-20T14:48:09.535Z,99759.41
2022-08-20T14:51:13.747Z,99754.47
2022-08-20T14:54:17.014Z,99758.00
2022-08-20T14:57:20.250Z,99751.41
2022-08-20T15:00:29.387Z,99763.81
2022-08-20T15:03:31.533Z,99765.25
2022-08-20T15:06:34.021Z,99779.87
2022-08-20T15:09:36.528Z,99780.34
2022-08-20T15:12:38.961Z,99773.53
2022-08-20T15:15:45.335Z,99781.78
2022-08-20T15:18:49.803Z,99794.00
2022-08-20T15:21:58.777Z,99797.31
2022-08-20T15:25:02.331Z,99793.19
2022-08-20T15:28:06.809Z,99784.28
2022-08-20T15:31:11.299Z,99776.41
2022-08-20T15:34:18.090Z,99789.22
2022-08-20T15:37:23.153Z,99784.69
2022-08-20T15:40:28.978Z,99780.31
2022-08-20T15:43:33.015Z,99782.19
2022-08-20T15:46:37.506Z,99790.44
2022-08-20T15:49:42.430Z,99797.44
2022-08-20T15:52:45.408Z,99786.91
2022-08-20T15:55:59.814Z,99800.50
2022-08-20T15:59:21.958Z,99798.03
2022-08-20T16:02:43.400Z,99802.34
2022-08-20T16:06:06.387Z,99800.25
2022-08-20T16:09:34.467Z,99801.47
2022-08-20T16:12:42.430Z,99804.13
2022-08-20T16:15:49.323Z,99801.38
2022-08-20T16:18:53.860Z,99799.34
2022-08-20T16:21:58.145Z,99793.53
2022-08-20T16:25:01.798Z,99798.91
2022-08-20T16:28:22.966Z,99804.84
2022-08-20T16:31:31.564Z,99806.34
2022-08-20T16:34:55.629Z,99813.09
2022-08-20T16:38:11.667Z,99813.72
2022-08-20T16:41:31.089Z,99813.88
2022-08-20T16:44:41.752Z,99817.16
2022-08-20T16:47:46.413Z,99814.88
2022-08-20T16:51:06.876Z,99814.25
2022-08-20T16:54:10.275Z,99809.44
2022-08-20T16:57:17.139Z,99813.09
2022-08-20T17:00:30.316Z,99813.88
2022-08-20T17:03:39.660Z,99809.13
2022-08-20T17:06:48.214Z,99808.44
2022-08-20T17:09:50.950Z,99809.03
2022-08-20T17:13:00.425Z,99815.41
2022-08-20T17:16:16.692Z,99817.22
2022-08-20T17:19:27.964Z,99821.19
2022-08-20T17:22:39.389Z,99812.69
2022-08-20T17:25:41.839Z,99811.59
2022-08-20T17:28:52.282Z,99808.81
2022-08-20T17:32:00.911Z,99809.53
2022-08-20T17:35:04.589Z,99813.69
2022-08-20T17:38:07.222Z,99814.19
2022-08-20T17:41:17.556Z,99820.75
2022-08-20T17:44:33.665Z,99819.84
2022-08-20T17:47:39.983Z,99811.19
2022-08-20T17:50:44.037Z,99805.78
2022-08-20T17:53:53.063Z,99801.94
2022-08-20T17:57:01.621Z,99797.44
2022-08-20T18:00:09.150Z,99794.06
2022-08-20T18:03:23.058Z,99803.37
2022-08-20T18:06:48.874Z,99802.91
2022-08-20T18:09:58.469Z,99805.13
2022-08-20T18:13:14.418Z,99807.06
2022-08-20T18:16:28.011Z,99802.06
2022-08-20T18:20:07.841Z,99796.44
2022-08-20T18:23:16.446Z,99781.16
2022-08-20T18:26:37.394Z,99775.28
2022-08-20T18:29:43.988Z,99774.72
2022-08-20T18:33:00.114Z,99764.78
2022-08-20T18:36:19.490Z,99767.53
2022-08-20T18:39:29.659Z,99776.53
2022-08-20T18:42:35.878Z,99787.78
2022-08-20T18:45:38.059Z,99790.44
2022-08-20T18:48:54.784Z,99792.28
2022-08-20T18:52:07.983Z,99792.53
2022-08-20T18:55:42.129Z,99790.75
2022-08-20T18:59:01.930Z,99799.28
2022-08-20T19:02:19.472Z,99802.13
2022-08-20T19:05:55.819Z,99797.09
2022-08-20T19:09:26.266Z,99790.56
2022-08-20T19:12:54.699Z,99801.03
2022-08-20T19:16:04.526Z,99792.38
2022-08-20T19:19:17.987Z,99797.72
2022-08-20T19:22:21.169Z,99795.25
2022-08-20T19:25:35.054Z,99795.59
2022-08-20T19:28:52.214Z,99784.47
2022-08-20T19:32:03.804Z,99777.00
2022-08-20T19:35:07.855Z,99785.59
2022-08-20T19:38:16.424Z,99776.00
2022-08-20T19:41:31.188Z,99776.00
2022-08-20T19:44:43.010Z,99778.47
2022-08-20T19:48:00.639Z,99784.84
2022-08-20T19:51:20.224Z,99778.13
2022-08-20T19:54:27.235Z,99771.63
2022-08-20T19:57:29.566Z,99773.44
2022-08-20T20:00:45.321Z,99772.44
2022-08-20T20:04:16.680Z,99761.41
2022-08-20T20:07:26.387Z,99770.44
2022-08-20T20:10:34.962Z,99750.09
2022-08-20T20:13:39.962Z,99749.72
2022-08-20T20:16:43.220Z,99750.09
2022-08-20T20:19:56.836Z,99746.06
2022-08-20T20:23:11.378Z,99744.16
2022-08-20T20:26:18.168Z,99739.28
2022-08-20T20:29:28.252Z,99751.31
2022-08-20T20:32:33.757Z,99746.75
2022-08-20T20:35:36.196Z,99749.50
2022-08-20T20:38:58.247Z,99740.03
2022-08-20T20:42:03.885Z,99742.59
2022-08-20T20:45:18.154Z,99741.03
2022-08-20T20:48:25.247Z,99732.22
2022-08-20T20:51:33.768Z,99731.47
2022-08-20T20:54:45.035Z,99731.19
2022-08-20T20:57:48.840Z,99730.72
2022-08-20T21:00:53.631Z,99736.63
2022-08-20T21:03:55.873Z,99734.69
2022-08-20T21:07:07.559Z,99736.72
2022-08-20T21:10:09.861Z,99733.31
2022-08-20T21:13:12.328Z,99737.62
2022-08-20T21:16:15.407Z,99736.00
2022-08-20T21:19:17.968Z,99732.88
2022-08-20T21:22:20.744Z,99729.09
2022-08-20T21:25:25.205Z,99740.78
2022-08-20T21:28:28.774Z,99736.06
2022-08-20T21:31:36.394Z,99742.78
2022-08-20T21:34:38.996Z,99739.31
2022-08-20T21:37:41.707Z,99726.41
2022-08-20T21:40:44.806Z,99728.63
2022-08-20T21:43:49.512Z,99729.81
2022-08-20T21:46:53.338Z,99736.81
2022-08-20T21:49:55.852Z,99732.50
2022-08-20T21:53:00.043Z,99730.19
2022-08-20T21:56:02.926Z,99740.84
2022-08-20T21:59:08.213Z,99746.94
2022-08-20T22:02:11.213Z,99742.56
2022-08-20T22:05:15.201Z,99734.13
2022-08-20T22:08:19.052Z,99735.50
2022-08-20T22:11:21.594Z,99744.31
2022-08-20T22:14:25.281Z,99736.31
2022-08-20T22:17:27.998Z,99739.91
2022-08-20T22:20:31.945Z,99747.78
2022-08-20T22:23:34.479Z,99745.97
2022-08-20T22:26:39.400Z,99737.06
2022-08-20T22:29:42.140Z,99739.72
2022-08-20T22:32:51.420Z,99738.69
2022-08-20T22:35:56.768Z,99738.16
2022-08-20T22:38:59.095Z,99738.34
2022-08-20T22:42:01.604Z,99735.50
2022-08-20T22:45:04.032Z,99731.34
2022-08-20T22:48:18.044Z,99727.41
2022-08-20T22:51:30.216Z,99723.34
2022-08-20T22:54:34.236Z,99716.84
2022-08-20T22:57:37.755Z,99725.25
2022-08-20T23:00:40.614Z,99727.03
2022-08-20T23:03:43.598Z,99722.34
2022-08-20T23:06:46.036Z,99708.84
2022-08-20T23:09:48.272Z,99705.13
2022-08-20T23:12:50.932Z,99700.91
2022-08-20T23:15:53.277Z,99709.56
2022-08-20T23:18:55.784Z,99706.81
2022-08-20T23:21:58.078Z,99701.09
2022-08-20T23:25:02.650Z,99692.81
2022-08-20T23:28:05.322Z,99701.47
2022-08-20T23:31:07.794Z,99694.28
2022-08-20T23:34:10.834Z,99697.97
2022-08-20T23:37:18.845Z,99692.44
2022-08-20T23:40:26.945Z,99687.94
2022-08-20T23:43:31.116Z,99684.44
2022-08-20T23:46:35.826Z,99682.97
2022-08-20T23:49:38.268Z,99678.69
2022-08-20T23:52:40.595Z,99678.69
2022-08-20T23:55:42.986Z,99671.78
2022-08-20T23:58:45.384Z,99673.09
